Time;durP1;ratioP1;P1;durP2;ratioP2;P2;SDS_P1;SDS_P2;PMS_P1;PMS_P2;Temp;Humidity;BMP_temperature;BMP_pressure;BME280_temperature;BME280_humidity;BME280_pressure;Samples;Min_cycle;Max_cycle;Signal;HPM_P1;HPM_P2
2022/06/18 00:02:23;;;;;;;7.37;6.23;;;21.70;66.90;;;;;;5115530;28;20446;-57
2022/06/18 00:04:50;;;;;;;7.80;6.03;;;21.70;66.90;;;;;;5115777;28;20479;-56
2022/06/18 00:07:20;;;;;;;5.83;5.07;;;21.60;67.30;;;;;;5115694;28;20426;-56
2022/06/18 00:09:57;;;;;;;5.77;4.90;;;21.60;67.20;;;;;;5115760;28;20465;-56
2022/06/18 00:15:17;;;;;;;5.80;5.20;;;21.60;67.80;;;;;;5115522;28;20773;-56
2022/06/18 00:17:45;;;;;;;6.07;5.57;;;21.60;68.40;;;;;;5115609;28;20522;-56
2022/06/18 00:20:14;;;;;;;6.07;5.53;;;21.60;69.00;;;;;;5115057;28;20550;-57
2022/06/18 00:22:43;;;;;;;8.27;7.20;;;21.70;68.10;;;;;;5115493;28;20842;-57
2022/06/18 00:25:20;;;;;;;10.67;7.23;;;21.60;68.50;;;;;;5115288;28;20485;-56
2022/06/18 00:27:48;;;;;;;8.83;7.57;;;21.40;69.80;;;;;;5115361;28;20812;-56
2022/06/18 00:30:20;;;;;;;7.40;6.80;;;21.50;69.60;;;;;;5115118;28;20446;-56
2022/06/18 00:32:48;;;;;;;9.77;6.43;;;21.50;69.70;;;;;;5114916;28;20462;-57
2022/06/18 00:35:15;;;;;;;9.87;7.30;;;21.40;69.20;;;;;;5115288;28;20526;-57
2022/06/18 00:37:45;;;;;;;13.87;8.10;;;21.40;70.10;;;;;;5114806;28;20542;-57
2022/06/18 00:40:16;;;;;;;8.23;7.43;;;21.40;70.00;;;;;;5115082;28;20466;-57
2022/06/18 00:42:44;;;;;;;13.90;8.00;;;21.40;70.50;;;;;;5115076;28;20438;-57
2022/06/18 00:45:16;;;;;;;11.23;10.17;;;21.30;69.90;;;;;;5114666;28;20491;-57
2022/06/18 00:47:56;;;;;;;11.23;10.03;;;21.20;70.20;;;;;;5114689;28;20427;-57
2022/06/18 00:50:28;;;;;;;16.07;9.77;;;21.20;70.80;;;;;;5114828;28;20446;-57
2022/06/18 00:53:01;;;;;;;11.77;9.93;;;21.20;70.40;;;;;;5115061;28;20423;-57
2022/06/18 00:55:34;;;;;;;15.23;10.90;;;21.20;71.10;;;;;;5114701;28;20437;-57
2022/06/18 00:58:04;;;;;;;10.43;9.40;;;21.20;70.80;;;;;;5114535;28;20897;-57
2022/06/18 01:00:37;;;;;;;11.97;8.53;;;21.10;71.00;;;;;;5114267;28;20545;-57
2022/06/18 01:03:06;;;;;;;10.10;8.40;;;21.10;71.60;;;;;;5114761;28;20781;-56
2022/06/18 01:05:38;;;;;;;9.63;8.63;;;21.20;71.30;;;;;;5114173;28;21003;-56
2022/06/18 01:08:13;;;;;;;8.40;7.57;;;21.20;70.90;;;;;;5114750;28;20441;-56
2022/06/18 01:10:43;;;;;;;9.27;7.13;;;21.20;71.00;;;;;;5114385;28;20470;-57
2022/06/18 01:13:15;;;;;;;7.43;6.67;;;21.20;71.40;;;;;;5114371;28;20901;-57
2022/06/18 01:15:44;;;;;;;7.17;6.50;;;21.20;71.80;;;;;;5114640;28;20541;-57
2022/06/18 01:18:14;;;;;;;6.27;5.63;;;21.20;71.80;;;;;;5114454;28;20541;-56
2022/06/18 01:20:46;;;;;;;6.57;5.97;;;21.20;71.40;;;;;;5114415;28;20573;-57
2022/06/18 01:23:20;;;;;;;6.23;5.73;;;21.00;71.40;;;;;;5114342;28;20438;-56
2022/06/18 01:25:49;;;;;;;4.73;4.37;;;21.00;72.00;;;;;;5120595;27;20827;-56
2022/06/18 01:28:17;;;;;;;4.57;4.17;;;21.10;71.90;;;;;;5134741;27;20533;-56
2022/06/18 01:30:45;;;;;;;4.93;4.27;;;20.90;71.90;;;;;;5134339;27;20466;-57
2022/06/18 01:33:13;;;;;;;4.67;4.27;;;20.90;72.30;;;;;;5134245;27;20860;-57
2022/06/18 01:35:44;;;;;;;4.00;3.70;;;20.80;72.40;;;;;;5134783;27;20446;-57
2022/06/18 01:38:13;;;;;;;5.13;4.63;;;20.80;72.10;;;;;;5134406;27;20942;-57
2022/06/18 01:40:45;;;;;;;4.70;4.30;;;20.90;72.80;;;;;;5134644;27;20473;-57
2022/06/18 01:43:17;;;;;;;4.67;4.17;;;20.90;71.70;;;;;;5134346;27;20436;-57
2022/06/18 01:45:45;;;;;;;4.37;3.97;;;20.90;72.80;;;;;;5134074;27;21007;-57
2022/06/18 01:48:19;;;;;;;4.50;4.10;;;20.80;72.80;;;;;;5134163;27;20808;-57
2022/06/18 01:50:50;;;;;;;4.97;4.57;;;20.80;73.00;;;;;;5134380;27;20473;-57
2022/06/18 01:53:22;;;;;;;4.67;3.90;;;20.80;73.20;;;;;;5134208;27;20444;-57
2022/06/18 01:55:53;;;;;;;5.00;4.60;;;20.70;73.10;;;;;;5134089;27;20443;-57
2022/06/18 01:58:27;;;;;;;4.60;4.17;;;20.70;73.70;;;;;;5134574;27;20426;-57
2022/06/18 02:00:58;;;;;;;6.83;4.60;;;20.70;73.10;;;;;;5133998;27;20540;-57
2022/06/18 02:03:25;;;;;;;6.20;4.43;;;20.60;74.00;;;;;;5134526;27;20458;-57
2022/06/18 02:05:52;;;;;;;4.33;4.03;;;20.70;73.70;;;;;;5133929;27;20564;-57
2022/06/18 02:08:21;;;;;;;4.03;3.70;;;20.70;73.80;;;;;;5134429;27;20445;-56
2022/06/18 02:10:54;;;;;;;4.97;3.93;;;20.70;74.00;;;;;;5134424;27;20566;-57
2022/06/18 02:13:26;;;;;;;4.43;4.03;;;20.70;74.50;;;;;;5134451;27;20430;-57
2022/06/18 02:15:54;;;;;;;4.20;3.70;;;20.70;75.40;;;;;;5134266;27;20509;-57
2022/06/18 02:18:22;;;;;;;4.17;3.83;;;20.70;74.90;;;;;;5134360;27;20441;-57
2022/06/18 02:20:52;;;;;;;6.50;4.60;;;20.60;74.70;;;;;;5134142;27;20468;-56
2022/06/18 02:23:21;;;;;;;4.47;4.07;;;20.60;75.80;;;;;;5134022;27;20520;-56
2022/06/18 02:25:49;;;;;;;4.37;3.93;;;20.60;75.80;;;;;;5133996;27;20499;-56
2022/06/18 02:28:23;;;;;;;4.73;3.90;;;20.60;75.50;;;;;;5134247;27;20442;-56
2022/06/18 02:30:51;;;;;;;4.13;3.83;;;20.50;76.20;;;;;;5133598;27;20462;-56
2022/06/18 02:33:29;;;;;;;4.47;4.07;;;20.50;75.90;;;;;;5134174;27;20492;-57
2022/06/18 02:35:58;;;;;;;4.33;3.93;;;20.50;75.80;;;;;;5133881;27;20449;-57
2022/06/18 02:38:25;;;;;;;4.23;3.90;;;20.40;76.20;;;;;;5133813;27;20924;-57
2022/06/18 02:40:53;;;;;;;5.27;3.73;;;20.50;76.10;;;;;;5134041;27;20477;-57
2022/06/18 02:43:22;;;;;;;4.90;3.60;;;20.60;76.10;;;;;;5134996;27;20452;-57
2022/06/18 02:45:53;;;;;;;4.80;3.87;;;20.60;75.70;;;;;;5137537;27;20480;-56
2022/06/18 02:48:24;;;;;;;4.10;3.70;;;20.60;76.10;;;;;;5138043;27;20437;-56
2022/06/18 02:50:51;;;;;;;4.00;3.60;;;20.60;76.20;;;;;;5137936;27;20453;-57
2022/06/18 02:53:18;;;;;;;4.57;3.80;;;20.50;76.30;;;;;;5137979;27;20532;-56
2022/06/18 02:55:49;;;;;;;5.00;4.50;;;20.60;76.90;;;;;;5137672;27;20525;-56
2022/06/18 02:58:20;;;;;;;4.67;4.07;;;20.50;76.30;;;;;;5137766;27;20429;-56
2022/06/18 03:00:52;;;;;;;4.80;3.93;;;20.50;76.40;;;;;;5137720;27;20479;-56
2022/06/18 03:03:21;;;;;;;4.07;3.77;;;20.50;76.30;;;;;;5137563;27;20516;-56
2022/06/18 03:05:49;;;;;;;4.13;3.83;;;20.60;76.90;;;;;;5137575;27;20481;-56
2022/06/18 03:08:16;;;;;;;4.70;4.30;;;20.50;77.40;;;;;;5137517;27;20441;-56
2022/06/18 03:13:28;;;;;;;4.00;3.60;;;20.50;77.00;;;;;;5137183;27;20557;-57
2022/06/18 03:15:57;;;;;;;11.77;3.67;;;20.30;77.30;;;;;;5137442;27;20533;-57
2022/06/18 03:18:28;;;;;;;3.87;3.57;;;20.20;78.30;;;;;;5137268;27;20564;-57
2022/06/18 03:21:03;;;;;;;5.17;3.83;;;20.30;78.40;;;;;;5136958;27;20496;-57
2022/06/18 03:23:31;;;;;;;4.40;4.10;;;20.40;78.60;;;;;;5137041;27;20468;-57
2022/06/18 03:25:58;;;;;;;4.20;3.53;;;20.40;78.00;;;;;;5137052;27;20484;-57
2022/06/18 03:28:27;;;;;;;5.07;4.30;;;20.40;78.20;;;;;;5137180;27;20541;-57
2022/06/18 03:30:56;;;;;;;4.07;3.77;;;20.40;78.10;;;;;;5137121;27;20465;-57
2022/06/18 03:33:23;;;;;;;5.00;4.40;;;20.40;78.40;;;;;;5136933;27;20479;-57
2022/06/18 03:35:52;;;;;;;5.00;3.87;;;20.30;76.70;;;;;;5137059;27;20529;-57
2022/06/18 03:38:21;;;;;;;4.47;3.90;;;20.30;78.00;;;;;;5136610;27;20960;-57
2022/06/18 03:40:51;;;;;;;4.37;3.97;;;20.40;77.40;;;;;;5136913;27;20510;-57
2022/06/18 03:43:20;;;;;;;4.73;4.33;;;20.40;77.10;;;;;;5137184;27;20487;-57
2022/06/18 03:45:51;;;;;;;4.00;3.70;;;20.40;78.40;;;;;;5136338;27;20507;-57
2022/06/18 03:48:27;;;;;;;4.33;3.47;;;20.50;77.40;;;;;;5136528;27;20430;-56
2022/06/18 03:50:55;;;;;;;3.90;3.50;;;20.30;78.20;;;;;;5136604;27;20461;-57
2022/06/18 03:53:23;;;;;;;3.70;3.40;;;20.40;78.10;;;;;;5136751;27;20536;-57
2022/06/18 03:55:51;;;;;;;4.33;3.77;;;20.40;79.00;;;;;;5135612;27;20525;-57
2022/06/18 03:58:18;;;;;;;4.20;3.73;;;20.30;79.00;;;;;;5136633;27;20529;-57
2022/06/18 04:00:46;;;;;;;6.53;4.10;;;20.40;78.50;;;;;;5136160;27;20549;-57
2022/06/18 04:03:13;;;;;;;4.63;4.23;;;20.40;79.70;;;;;;5136062;27;20485;-57
2022/06/18 04:05:42;;;;;;;4.17;3.70;;;20.30;79.40;;;;;;5135990;27;20478;-57
2022/06/18 04:08:11;;;;;;;6.30;4.07;;;20.20;79.80;;;;;;5136418;27;20441;-57
2022/06/18 04:10:38;;;;;;;3.80;3.50;;;20.20;80.80;;;;;;5136179;27;20474;-57
2022/06/18 04:13:05;;;;;;;4.23;3.83;;;20.30;80.50;;;;;;5136312;27;20446;-56
2022/06/18 04:15:32;;;;;;;4.30;3.57;;;20.40;80.00;;;;;;5135999;27;21011;-56
2022/06/18 04:17:59;;;;;;;6.93;4.73;;;20.40;81.40;;;;;;5136220;27;20488;-56
2022/06/18 04:20:30;;;;;;;4.87;3.97;;;20.40;80.70;;;;;;5135803;27;20552;-57
2022/06/18 04:22:58;;;;;;;3.90;3.60;;;20.50;80.00;;;;;;5135821;27;20430;-57
2022/06/18 04:25:26;;;;;;;3.57;3.37;;;20.40;81.00;;;;;;5135871;27;20483;-57
2022/06/18 04:27:56;;;;;;;4.33;3.93;;;20.40;81.20;;;;;;5135649;27;20445;-57
2022/06/18 04:30:25;;;;;;;3.83;3.53;;;20.50;81.70;;;;;;5135630;27;20501;-57
2022/06/18 04:32:52;;;;;;;4.83;4.27;;;20.50;81.70;;;;;;5135535;27;20536;-57
2022/06/18 04:35:20;;;;;;;5.20;4.70;;;20.60;81.80;;;;;;5135590;27;20537;-56
2022/06/18 04:37:48;;;;;;;4.47;4.07;;;20.60;82.20;;;;;;5135718;27;20445;-57
2022/06/18 04:40:20;;;;;;;4.40;4.10;;;20.60;82.80;;;;;;5135669;27;20512;-57
2022/06/18 04:42:48;;;;;;;4.50;3.80;;;20.60;83.10;;;;;;5135497;27;20426;-57
2022/06/18 04:45:15;;;;;;;7.33;4.50;;;20.60;82.10;;;;;;5135225;27;20485;-57
2022/06/18 04:47:43;;;;;;;4.63;4.17;;;20.70;81.30;;;;;;5135620;27;20540;-57
2022/06/18 04:50:17;;;;;;;6.80;4.23;;;20.70;83.40;;;;;;5135244;27;20482;-57
2022/06/18 04:52:45;;;;;;;4.67;4.27;;;20.70;81.90;;;;;;5135549;27;20430;-57
2022/06/18 04:55:13;;;;;;;5.00;4.50;;;20.80;81.00;;;;;;5135220;27;20504;-57
2022/06/18 04:57:42;;;;;;;5.00;4.50;;;20.80;79.60;;;;;;5135138;27;21006;-56
2022/06/18 05:00:10;;;;;;;5.30;4.30;;;20.80;80.00;;;;;;5135022;27;20461;-57
2022/06/18 05:02:38;;;;;;;4.93;3.57;;;20.80;80.80;;;;;;5134985;27;20484;-57
2022/06/18 05:05:08;;;;;;;5.33;4.37;;;20.90;80.50;;;;;;5134954;27;20426;-57
2022/06/18 05:07:36;;;;;;;4.33;4.03;;;20.90;79.80;;;;;;5134249;27;20478;-56
2022/06/18 05:10:03;;;;;;;4.03;3.70;;;21.00;79.20;;;;;;5135082;27;20465;-57
2022/06/18 05:12:30;;;;;;;4.60;4.20;;;21.10;81.80;;;;;;5135198;27;20447;-57
2022/06/18 05:14:59;;;;;;;4.37;3.97;;;21.10;81.80;;;;;;5134818;27;20446;-57
2022/06/18 05:17:29;;;;;;;9.03;4.90;;;21.10;82.60;;;;;;5135003;27;20529;-57
2022/06/18 05:19:56;;;;;;;4.67;4.20;;;21.20;81.50;;;;;;5134664;27;20462;-57
2022/06/18 05:22:24;;;;;;;4.40;4.00;;;21.20;83.40;;;;;;5134964;27;20482;-56
2022/06/18 05:24:51;;;;;;;4.23;3.90;;;21.20;81.20;;;;;;5134636;27;20477;-57
2022/06/18 05:27:23;;;;;;;4.60;4.17;;;21.30;81.70;;;;;;5134302;27;20552;-57
2022/06/18 05:29:50;;;;;;;5.33;3.73;;;21.30;80.70;;;;;;5134914;27;20469;-56
2022/06/18 05:32:18;;;;;;;5.03;4.30;;;21.40;82.50;;;;;;5134336;27;20445;-57
2022/06/18 05:34:46;;;;;;;4.40;4.00;;;21.40;80.50;;;;;;5134498;27;20794;-57
2022/06/18 05:37:14;;;;;;;6.83;4.93;;;21.50;80.30;;;;;;5134641;27;20469;-57
2022/06/18 05:39:42;;;;;;;4.50;4.10;;;21.60;81.90;;;;;;5134365;27;20556;-56
2022/06/18 05:42:10;;;;;;;4.03;3.73;;;21.70;81.90;;;;;;5134780;27;20492;-57
2022/06/18 05:44:37;;;;;;;4.80;4.40;;;21.80;81.80;;;;;;5134192;27;21038;-57
2022/06/18 05:47:13;;;;;;;7.00;4.80;;;21.70;80.30;;;;;;5134471;27;20904;-57
2022/06/18 05:49:42;;;;;;;4.53;4.10;;;21.80;80.20;;;;;;5134559;27;20493;-58
2022/06/18 05:52:10;;;;;;;4.27;3.87;;;21.90;80.30;;;;;;5134600;27;20488;-57
2022/06/18 05:54:38;;;;;;;4.40;4.00;;;22.00;81.40;;;;;;5134570;27;20484;-57
2022/06/18 05:57:06;;;;;;;4.87;4.37;;;22.00;78.80;;;;;;5134005;27;20521;-57
2022/06/18 05:59:34;;;;;;;5.37;4.87;;;22.00;79.00;;;;;;5134503;27;20462;-57
2022/06/18 06:02:01;;;;;;;5.77;4.80;;;22.20;79.10;;;;;;5133982;27;20449;-57
2022/06/18 06:04:30;;;;;;;4.40;4.10;;;;;;;;;;5134490;27;20449;-57
2022/06/18 06:06:59;;;;;;;5.30;4.77;;;22.40;78.00;;;;;;5133994;27;20477;-55
2022/06/18 06:12:11;;;;;;;5.27;4.00;;;22.60;79.90;;;;;;5099646;27;20437;-55
2022/06/18 06:14:38;;;;;;;5.07;4.57;;;22.70;79.70;;;;;;5133840;27;20428;-56
2022/06/18 06:17:07;;;;;;;5.20;4.27;;;22.80;78.30;;;;;;5134738;27;20516;-56
2022/06/18 06:19:34;;;;;;;6.10;4.40;;;22.90;79.40;;;;;;5138421;27;21060;-56
2022/06/18 06:22:02;;;;;;;4.97;4.40;;;23.00;79.40;;;;;;5138521;27;20448;-56
2022/06/18 06:24:30;;;;;;;4.97;4.47;;;23.00;79.70;;;;;;5138317;27;20443;-56
2022/06/18 06:26:57;;;;;;;4.90;4.50;;;23.10;81.00;;;;;;5137861;27;20565;-57
2022/06/18 06:29:24;;;;;;;4.83;4.53;;;23.20;76.80;;;;;;5137884;27;20534;-56
2022/06/18 06:31:51;;;;;;;7.60;5.10;;;23.30;94.50;;;;;;5137927;27;20447;-56
2022/06/18 06:34:18;;;;;;;5.43;4.97;;;23.40;78.50;;;;;;5137627;27;20449;-56
2022/06/18 06:36:46;;;;;;;7.00;5.43;;;23.50;77.70;;;;;;5137893;27;20484;-56
2022/06/18 06:39:16;;;;;;;6.47;4.93;;;23.50;77.10;;;;;;5137801;27;21067;-57
2022/06/18 06:41:44;;;;;;;4.90;4.23;;;23.60;75.90;;;;;;5138158;27;20787;-57
2022/06/18 06:44:11;;;;;;;7.30;4.57;;;23.80;78.20;;;;;;5137553;27;20990;-56
2022/06/18 06:46:39;;;;;;;5.93;4.83;;;23.90;76.30;;;;;;5137636;27;20552;-56
2022/06/18 06:49:06;;;;;;;8.00;5.10;;;24.00;78.20;;;;;;5137611;27;20449;-57
2022/06/18 06:51:37;;;;;;;4.63;4.27;;;24.10;75.70;;;;;;5137754;27;20524;-57
2022/06/18 06:54:06;;;;;;;7.73;4.30;;;24.20;75.80;;;;;;5137947;27;20433;-57
2022/06/18 06:59:19;;;;;;;4.97;4.57;;;24.60;78.40;;;;;;5137373;27;20445;-57
2022/06/18 07:01:46;;;;;;;5.10;4.70;;;25.20;75.00;;;;;;5137411;27;20927;-57
2022/06/18 07:04:14;;;;;;;5.07;4.63;;;25.90;73.60;;;;;;5137490;27;20524;-57
2022/06/18 07:06:42;;;;;;;4.33;3.93;;;26.40;72.20;;;;;;5137521;27;20560;-57
2022/06/18 07:09:10;;;;;;;7.67;4.20;;;26.90;72.00;;;;;;5137273;27;20465;-57
2022/06/18 07:11:39;;;;;;;4.53;4.23;;;27.20;68.70;;;;;;5137579;27;21000;-58
2022/06/18 07:14:06;;;;;;;5.07;4.20;;;27.50;67.50;;;;;;5137353;27;20445;-58
2022/06/18 07:16:34;;;;;;;4.57;4.17;;;28.10;68.80;;;;;;5137036;27;20529;-58
2022/06/18 07:19:02;;;;;;;4.77;4.37;;;28.40;67.30;;;;;;5136902;27;20461;-57
2022/06/18 07:21:33;;;;;;;4.10;3.80;;;28.50;65.80;;;;;;5137217;27;20548;-57
2022/06/18 07:24:01;;;;;;;6.40;3.70;;;28.70;63.90;;;;;;5137187;27;20501;-56
2022/06/18 07:26:32;;;;;;;4.20;3.73;;;28.80;64.70;;;;;;5124973;27;20486;-57
2022/06/18 07:29:01;;;;;;;7.30;4.20;;;28.90;63.80;;;;;;5115559;28;20823;-57
2022/06/18 07:31:30;;;;;;;16.03;4.70;;;29.20;63.50;;;;;;5116539;28;20468;-57
2022/06/18 07:33:58;;;;;;;4.87;4.47;;;29.20;62.70;;;;;;5116165;28;20446;-57
2022/06/18 07:36:26;;;;;;;5.43;4.00;;;;;;;;;;5116194;28;20448;-58
2022/06/18 07:38:54;;;;;;;4.47;4.07;;;29.70;62.10;;;;;;5115984;28;20996;-58
2022/06/18 07:41:22;;;;;;;5.77;4.50;;;30.10;61.20;;;;;;5116432;28;20545;-58
2022/06/18 07:43:52;;;;;;;4.60;4.07;;;;;;;;;;5116092;28;20567;-57
2022/06/18 07:46:20;;;;;;;6.47;3.87;;;30.40;61.30;;;;;;5115778;28;20488;-58
2022/06/18 07:48:48;;;;;;;3.97;3.67;;;30.70;61.80;;;;;;5116033;28;20529;-56
2022/06/18 07:51:15;;;;;;;4.67;4.20;;;31.10;59.60;;;;;;5115883;28;20482;-58
2022/06/18 07:53:43;;;;;;;4.43;3.70;;;31.40;59.50;;;;;;5115730;28;20449;-57
2022/06/18 07:56:13;;;;;;;3.50;3.20;;;31.70;58.50;;;;;;5115988;28;20446;-57
2022/06/18 07:58:41;;;;;;;9.40;4.43;;;31.50;58.30;;;;;;5115500;28;20442;-57
2022/06/18 08:01:08;;;;;;;4.47;4.07;;;31.40;57.40;;;;;;5115676;28;20446;-57
2022/06/18 08:03:38;;;;;;;6.43;3.80;;;31.70;58.00;;;;;;5115602;28;20451;-57
2022/06/18 08:06:07;;;;;;;22.13;5.90;;;32.00;56.90;;;;;;5115454;28;20956;-57
2022/06/18 08:08:35;;;;;;;6.63;3.30;;;31.90;56.50;;;;;;5115373;28;20921;-57
2022/06/18 08:11:03;;;;;;;3.20;3.00;;;32.20;56.60;;;;;;5115689;28;20450;-57
2022/06/18 08:13:31;;;;;;;6.30;3.30;;;32.40;55.20;;;;;;5115326;28;20541;-57
2022/06/18 08:15:58;;;;;;;8.43;3.93;;;32.50;55.30;;;;;;5115351;28;20925;-58
2022/06/18 08:18:25;;;;;;;4.17;3.57;;;32.50;55.70;;;;;;5115168;28;21026;-57
2022/06/18 08:20:54;;;;;;;3.27;3.07;;;32.70;55.60;;;;;;5115515;28;20462;-57
2022/06/18 08:23:21;;;;;;;3.70;3.40;;;32.90;54.80;;;;;;5115596;28;20438;-57
2022/06/18 08:25:48;;;;;;;7.13;4.10;;;32.80;55.40;;;;;;5115375;28;20442;-57
2022/06/18 08:28:16;;;;;;;6.13;3.90;;;32.70;54.80;;;;;;5115171;28;20525;-57
2022/06/18 08:30:44;;;;;;;3.83;3.50;;;32.90;55.20;;;;;;5114977;28;20470;-57
2022/06/18 08:33:11;;;;;;;3.50;3.20;;;33.20;54.00;;;;;;5114957;28;20460;-57
2022/06/18 08:35:39;;;;;;;2.90;2.70;;;33.60;53.70;;;;;;5115200;28;20529;-57
2022/06/18 08:38:09;;;;;;;3.53;3.23;;;33.60;54.10;;;;;;5115018;28;20477;-57
2022/06/18 08:40:51;;;;;;;3.63;3.20;;;33.20;52.30;;;;;;5114837;28;20964;-57
2022/06/18 08:43:55;;;;;;;4.90;3.60;;;33.20;52.00;;;;;;5115015;28;20433;-57
2022/06/18 08:46:31;;;;;;;4.87;2.97;;;33.40;53.40;;;;;;5114492;28;20473;-57
2022/06/18 08:49:42;;;;;;;3.17;2.97;;;34.30;52.90;;;;;;5114922;28;20479;-57
2022/06/18 08:52:27;;;;;;;4.17;2.87;;;34.00;50.50;;;;;;5078108;28;20537;-57
2022/06/18 08:55:02;;;;;;;3.50;3.20;;;34.30;51.10;;;;;;5114951;28;20521;-57
2022/06/18 08:57:38;;;;;;;4.03;3.17;;;34.50;51.70;;;;;;5114975;28;20406;-57
2022/06/18 09:00:13;;;;;;;4.13;2.93;;;34.90;51.00;;;;;;5114856;28;20543;-57
2022/06/18 09:02:44;;;;;;;3.40;3.10;;;34.40;51.40;;;;;;5114393;28;20432;-57
2022/06/18 09:05:23;;;;;;;3.20;3.00;;;34.70;52.50;;;;;;5114727;28;20831;-58
2022/06/18 09:08:27;;;;;;;5.87;2.97;;;34.70;50.90;;;;;;5114786;28;20466;-57
2022/06/18 09:11:20;;;;;;;4.97;3.63;;;35.20;49.30;;;;;;5114068;28;20466;-57
2022/06/18 09:13:54;;;;;;;3.60;3.30;;;34.80;49.90;;;;;;5114643;28;20487;-56
2022/06/18 09:16:25;;;;;;;3.33;2.80;;;35.30;49.30;;;;;;5114444;28;20448;-57
2022/06/18 09:18:55;;;;;;;3.30;3.00;;;35.00;49.80;;;;;;5114006;28;20556;-55
2022/06/18 09:21:32;;;;;;;2.60;2.40;;;35.20;49.60;;;;;;5114081;28;20456;-57
2022/06/18 09:24:02;;;;;;;5.10;3.63;;;35.60;50.00;;;;;;5114333;28;20517;-58
2022/06/18 09:26:35;;;;;;;5.67;3.07;;;35.70;50.30;;;;;;5114111;28;20426;-57
2022/06/18 09:29:09;;;;;;;3.57;3.30;;;35.60;49.30;;;;;;5114213;28;20560;-58
2022/06/18 09:31:43;;;;;;;3.00;2.80;;;35.90;49.80;;;;;;5114308;28;20431;-57
2022/06/18 09:34:17;;;;;;;2.97;2.77;;;36.10;47.90;;;;;;5114215;28;20426;-57
2022/06/18 09:36:49;;;;;;;3.90;3.20;;;35.80;49.60;;;;;;5113865;28;20414;-58
2022/06/18 09:39:21;;;;;;;4.80;3.53;;;35.70;49.30;;;;;;5113866;28;21050;-58
2022/06/18 09:41:57;;;;;;;3.17;2.67;;;35.80;48.80;;;;;;5113755;28;20540;-57
2022/06/18 09:44:28;;;;;;;3.70;3.40;;;35.90;48.70;;;;;;5112685;28;20489;-58
2022/06/18 09:47:01;;;;;;;4.43;2.77;;;35.90;49.80;;;;;;5113597;28;20549;-57
2022/06/18 09:49:28;;;;;;;3.20;3.00;;;35.90;48.50;;;;;;5114040;28;20458;-58
2022/06/18 09:52:00;;;;;;;3.00;2.80;;;35.30;47.80;;;;;;5113013;28;20442;-58
2022/06/18 09:54:31;;;;;;;4.10;3.63;;;35.40;49.50;;;;;;5114160;28;20491;-58
2022/06/18 09:57:01;;;;;;;3.43;3.23;;;36.10;49.90;;;;;;5113484;28;20458;-57
2022/06/18 09:59:32;;;;;;;4.13;3.10;;;36.40;53.40;;;;;;5113400;28;21003;-57
2022/06/18 10:02:00;;;;;;;3.23;2.97;;;36.40;47.60;;;;;;5114225;28;20483;-57
2022/06/18 10:07:18;;;;;;;5.73;3.50;;;35.70;48.30;;;;;;5113683;28;20812;-58
2022/06/18 10:09:50;;;;;;;3.17;2.90;;;36.70;48.20;;;;;;5113731;28;20477;-58
2022/06/18 10:12:22;;;;;;;2.80;2.60;;;36.70;48.30;;;;;;5113905;28;20430;-58
2022/06/18 10:14:52;;;;;;;2.77;2.57;;;36.90;47.00;;;;;;5113775;28;20422;-58
2022/06/18 10:17:34;;;;;;;2.60;2.40;;;36.10;43.50;;;;;;5113729;28;20430;-58
2022/06/18 10:20:07;;;;;;;1.80;1.70;;;35.20;42.40;;;;;;5113426;28;21032;-57
2022/06/18 10:22:44;;;;;;;2.00;1.90;;;35.00;46.20;;;;;;5113693;28;20433;-58
2022/06/18 10:25:22;;;;;;;2.00;1.90;;;36.00;41.80;;;;;;5113265;28;20469;-58
2022/06/18 10:27:59;;;;;;;2.67;2.30;;;36.20;42.20;;;;;;5113219;28;20473;-57
2022/06/18 10:30:35;;;;;;;2.40;2.20;;;35.50;42.40;;;;;;5113357;28;20556;-58
2022/06/18 10:33:11;;;;;;;2.30;2.10;;;35.50;41.90;;;;;;5113595;28;20429;-57
2022/06/18 10:35:47;;;;;;;3.90;2.20;;;35.70;41.50;;;;;;5113733;28;20787;-57
2022/06/18 10:38:40;;;;;;;2.17;1.80;;;36.40;41.60;;;;;;5113528;28;20418;-58
2022/06/18 10:41:16;;;;;;;3.07;2.10;;;36.50;42.90;;;;;;5113500;28;20453;-58
2022/06/18 10:43:58;;;;;;;5.00;2.43;;;36.00;40.50;;;;;;5113310;28;20426;-58
2022/06/18 10:46:26;;;;;;;2.73;2.50;;;36.30;41.10;;;;;;5112964;28;20482;-58
2022/06/18 10:48:56;;;;;;;2.20;2.00;;;36.70;41.30;;;;;;5113291;28;20569;-58
2022/06/18 10:51:26;;;;;;;2.57;2.37;;;36.20;41.50;;;;;;5113153;28;20868;-58
2022/06/18 10:53:56;;;;;;;2.47;2.00;;;36.00;41.20;;;;;;5112944;28;20477;-58
2022/06/18 10:56:26;;;;;;;7.60;2.07;;;36.20;39.90;;;;;;5113338;28;20453;-58
2022/06/18 10:58:56;;;;;;;5.33;2.47;;;36.90;39.70;;;;;;5113091;28;20462;-58
2022/06/18 11:01:30;;;;;;;3.37;2.10;;;36.40;51.30;;;;;;5113429;28;20430;-58
2022/06/18 11:04:00;;;;;;;1.83;1.73;;;36.50;52.70;;;;;;5113120;28;20422;-58
2022/06/18 11:06:27;;;;;;;2.33;2.13;;;37.70;54.60;;;;;;5116817;28;20787;-58
2022/06/18 11:08:57;;;;;;;5.70;2.60;;;37.30;40.80;;;;;;5116366;28;20898;-58
2022/06/18 11:11:27;;;;;;;3.00;2.47;;;36.80;40.30;;;;;;5116940;28;20450;-57
2022/06/18 11:13:56;;;;;;;2.30;1.90;;;36.40;41.40;;;;;;5116617;28;20429;-58
2022/06/18 11:16:26;;;;;;;3.80;2.27;;;36.60;40.90;;;;;;5116628;28;20446;-58
2022/06/18 11:18:55;;;;;;;2.17;1.80;;;36.20;47.40;;;;;;5116325;28;21033;-57
2022/06/18 11:21:33;;;;;;;3.10;2.10;;;35.80;40.40;;;;;;5116483;28;20426;-58
2022/06/18 11:24:02;;;;;;;5.20;2.10;;;36.10;41.30;;;;;;5116190;28;20815;-58
2022/06/18 11:26:31;;;;;;;2.50;2.20;;;36.60;40.60;;;;;;5116120;28;20445;-58
2022/06/18 11:29:07;;;;;;;3.30;2.40;;;36.90;45.20;;;;;;5115800;28;21002;-57
2022/06/18 11:31:43;;;;;;;6.40;3.07;;;36.90;43.90;;;;;;5116370;28;20465;-58
2022/06/18 11:34:22;;;;;;;3.50;2.47;;;36.30;42.40;;;;;;5116195;28;20905;-57
2022/06/18 11:36:51;;;;;;;6.57;2.37;;;36.60;42.70;;;;;;5116129;28;20980;-57
2022/06/18 11:39:28;;;;;;;4.70;2.30;;;36.70;42.70;;;;;;5116131;28;20460;-61
2022/06/18 11:41:59;;;;;;;3.70;2.30;;;36.00;42.30;;;;;;5116446;28;20453;-57
2022/06/18 11:44:34;;;;;;;5.20;2.77;;;35.80;41.60;;;;;;5116167;28;20426;-57
2022/06/18 11:47:08;;;;;;;3.07;2.40;;;36.80;42.70;;;;;;5116338;28;20482;-57
2022/06/18 11:49:40;;;;;;;5.00;2.90;;;37.20;43.00;;;;;;5115620;28;20540;-57
2022/06/18 11:52:14;;;;;;;3.30;2.60;;;37.00;43.90;;;;;;5115773;28;20457;-57
2022/06/18 11:54:53;;;;;;;5.80;2.57;;;36.40;41.60;;;;;;5115784;28;20433;-57
2022/06/18 11:57:26;;;;;;;7.40;3.37;;;36.10;41.90;;;;;;5115750;28;20483;-57
2022/06/18 12:00:06;;;;;;;5.10;2.50;;;36.20;42.30;;;;;;5116132;28;20468;-57
2022/06/18 12:02:44;;;;;;;3.80;3.20;;;36.00;41.40;;;;;;5115690;28;20441;-57
2022/06/18 12:05:18;;;;;;;6.60;2.80;;;35.80;41.60;;;;;;5115934;28;20530;-57
2022/06/18 12:07:49;;;;;;;5.50;2.87;;;36.40;42.00;;;;;;5115866;28;20549;-57
2022/06/18 12:10:19;;;;;;;2.57;2.37;;;36.40;42.30;;;;;;5115777;28;20480;-57
2022/06/18 12:12:57;;;;;;;3.20;2.90;;;37.00;42.40;;;;;;5115952;28;20465;-58
2022/06/18 12:15:35;;;;;;;4.93;3.40;;;36.90;42.60;;;;;;5115007;28;20968;-57
2022/06/18 12:18:06;;;;;;;3.93;2.40;;;37.10;42.00;;;;;;5115341;28;20422;-57
2022/06/18 12:20:58;;;;;;;4.70;2.60;;;37.20;41.10;;;;;;5115316;28;20557;-57
2022/06/18 12:23:34;;;;;;;5.83;2.60;;;37.40;42.40;;;;;;5115508;28;20438;-57
2022/06/18 12:26:05;;;;;;;8.33;3.00;;;37.20;41.70;;;;;;5115739;28;20572;-57
2022/06/18 12:28:44;;;;;;;7.60;2.97;;;36.70;41.00;;;;;;5115069;28;21017;-58
2022/06/18 12:31:20;;;;;;;4.73;3.03;;;36.70;44.70;;;;;;5115247;28;20438;-59
2022/06/18 12:33:55;;;;;;;10.63;3.17;;;36.90;44.60;;;;;;5115332;28;20471;-58
2022/06/18 12:36:27;;;;;;;10.30;4.07;;;36.80;43.50;;;;;;5115268;28;20452;-58
2022/06/18 12:39:02;;;;;;;4.40;3.03;;;36.80;43.60;;;;;;5114979;28;20961;-58
2022/06/18 12:41:40;;;;;;;8.63;3.37;;;36.70;44.80;;;;;;5115384;28;20453;-57
2022/06/18 12:44:23;;;;;;;8.40;3.83;;;36.90;44.70;;;;;;5115242;27;20465;-59
2022/06/18 12:47:03;;;;;;;7.10;2.80;;;36.80;45.20;;;;;;5115407;28;20450;-58
2022/06/18 12:49:37;;;;;;;6.37;3.07;;;36.90;45.80;;;;;;5115294;28;20979;-59
2022/06/18 12:52:12;;;;;;;4.77;2.93;;;35.90;47.50;;;;;;5115355;28;20517;-58
2022/06/18 12:54:54;;;;;;;9.70;3.70;;;35.50;42.30;;;;;;5114994;28;20433;-58
2022/06/18 12:57:27;;;;;;;5.63;3.10;;;35.80;42.20;;;;;;5115289;28;20430;-58
2022/06/18 13:00:04;;;;;;;7.47;3.80;;;36.20;42.70;;;;;;5114734;28;20964;-58
2022/06/18 13:02:55;;;;;;;11.30;5.40;;;35.50;41.90;;;;;;5115606;28;20429;-58
2022/06/18 13:05:33;;;;;;;8.53;4.00;;;35.90;42.30;;;;;;5115127;28;20533;-58
2022/06/18 13:08:08;;;;;;;10.43;4.00;;;36.20;42.50;;;;;;5114740;28;20959;-58
2022/06/18 13:10:42;;;;;;;8.00;3.30;;;36.40;42.80;;;;;;5114879;28;20556;-58
2022/06/18 13:13:26;;;;;;;10.00;4.03;;;36.50;48.80;;;;;;5114542;28;20473;-58
2022/06/18 13:15:59;;;;;;;11.73;3.90;;;36.30;48.70;;;;;;5114526;28;20422;-58
2022/06/18 13:18:33;;;;;;;7.90;3.90;;;36.00;49.00;;;;;;5114834;28;20426;-58
2022/06/18 13:21:04;;;;;;;12.40;4.37;;;35.90;48.50;;;;;;5114383;28;20432;-58
2022/06/18 13:29:12;;;;;;;12.77;4.50;;;35.30;43.60;;;;;;5114130;28;20484;-58